Kezdőlap
METAR-TAF:

METAR-TAF

Repülőterek :

Crystal Airport

Minneapolis-Crystal, Minnesota, Amerikai Egyesült Államok

földrajzi szélesség: 45-03-45N, földrajzi hosszúság: 093-21-03W, magasság: 264 m

Jelenlegi meteorológiai megfigyelések

A jelentés 43 perccel ezelõtt készült, 02:53 UTC
Nyugat-északnyugati szél 4 kt
Hőmérséklet -7°C
Páratartalom 62%
Légköri nyomás 1019 hPa
Látótávolság: 16.1 km
Borult 12000 lábon

METAR: KMIC 280253Z 30004KT 10SM OVC120 M07/M13 A3009 RMK AO2 SLP205 T10671133 58004

Idő: 21:36 (03:36 UTC)


TAF: hiányzik

Meteorológiai megfigyelések és előrejelzések több, mint 4000 repülőtéren (METAR és TAF jelentéseket).

A térképen piros és sárga pontok jelzik az elérhető meteorológiai állomásokat.

Mozgassa az egeret a pont fölött, hogy megjelenjen az állomás neve.

Azután kattintson az időjárási megfigyelések és előrejelzések megtekintéséhez.

A térkép megváltoztatása: kattintson a fekete keresztel jelölt zöld gombra ráközelítéshez, a vonallal jelölt zöld gombra távolításhoz, vagy a zöld nyilakra a szomszédos térképek eléréséhez.


METAR-TAF: